M I D A S
Marine Information and Data Acquisition System
Tripno 1471 of the Zeeleeuw from 2008-02-21 08:08:07 to 2008-02-21 13:14:37
Back to CruiseResearch ActivitiesStationsMapUnderway DataData graphs

EquipmentUnitsComments
TimeDGPSUTC
LatitudeDGPSDM.mWGS84
LongitudeDGPSDM.mWGS84
SpeedMeteo Stationm/sRelative wind speed
DirectionMeteo StationdegRelative wind direction
TemperatureMeteo Stationdeg CelciusAir temperature
PressureMeteo StationPaAtmospheric pressure
HumidityMeteo Station%Relative humidity
Missing or incorrect values are displayed as -999
Metereological data collected by the RV Zeeleeuw from 2008-02-21 08:05:32 to 2008-02-21 13:29:38
                                                                                    Next 1000 lines
Time Latitude Longitude Speed Direction Temperature Pressure Humidity
2008-02-21 08:05:42 51°13.664 2°55.956 2.3 358 5.2 102200 100
2008-02-21 08:05:46 51°13.664 2°55.956 2.9 16 5.2 102200 100
2008-02-21 08:05:51 51°13.664 2°55.956 4.1 22 5.2 102200 100
2008-02-21 08:05:57 51°13.664 2°55.956 4 19 5.2 102200 100
2008-02-21 08:06:01 51°13.664 2°55.956 3.9 16 5.2 102200 100
2008-02-21 08:06:06 51°13.664 2°55.956 3 31 5.2 102200 100
2008-02-21 08:06:11 51°13.664 2°55.956 2.4 33 5.3 102200 100
2008-02-21 08:06:16 51°13.664 2°55.956 2.5 9 5.3 102200 100
2008-02-21 08:06:21 51°13.664 2°55.956 2.4 360 5.3 102200 100
2008-02-21 08:06:26 51°13.664 2°55.956 2.1 12 5.3 102200 100
2008-02-21 08:06:31 51°13.665 2°55.956 2.2 8 5.3 102200 100
2008-02-21 08:06:37 51°13.664 2°55.956 2 24 5.3 102200 100
2008-02-21 08:06:42 51°13.664 2°55.956 2.3 15 5.3 102200 100
2008-02-21 08:06:46 51°13.664 2°55.956 2.8 11 5.3 102200 100
2008-02-21 08:06:52 51°13.664 2°55.956 3.1 15 5.3 102200 100
2008-02-21 08:06:57 51°13.664 2°55.956 2.5 21 5.3 102200 100
2008-02-21 08:07:01 51°13.664 2°55.956 2.1 23 5.3 102200 100
2008-02-21 08:07:06 51°13.664 2°55.956 1.5 18 5.3 102200 100
2008-02-21 08:07:11 51°13.664 2°55.956 2 16 5.3 102200 100
2008-02-21 08:07:16 51°13.664 2°55.956 1.7 12 5.3 102200 100
2008-02-21 08:07:21 51°13.664 2°55.956 2.4 8 5.3 102190 100
2008-02-21 08:07:26 51°13.664 2°55.956 1.4 17 5.3 102190 100
2008-02-21 08:07:31 51°13.663 2°55.956 1.4 25 5.3 102200 100
2008-02-21 08:07:36 51°13.663 2°55.956 2.3 3 5.3 102200 100
2008-02-21 08:07:41 51°13.663 2°55.956 2.7 30 5.3 102200 100
2008-02-21 08:07:45 51°13.663 2°55.955 2.4 16 5.3 102200 100
2008-02-21 08:07:50 51°13.663 2°55.956 2.5 24 5.3 102200 100
2008-02-21 08:07:55 51°13.663 2°55.955 2.2 20 5.3 102200 100
2008-02-21 08:08:00 51°13.663 2°55.955 2.6 19 5.3 102190 100
2008-02-21 08:08:05 51°13.663 2°55.955 2.6 27 5.3 102190 100
2008-02-21 08:08:10 51°13.663 2°55.955 2.3 22 5.3 102190 100
2008-02-21 08:08:14 51°13.663 2°55.955 2 31 5.3 102190 100
2008-02-21 08:08:20 51°13.663 2°55.955 2.1 20 5.3 102190 100
2008-02-21 08:08:25 51°13.663 2°55.955 2.1 26 5.3 102190 100
2008-02-21 08:08:29 51°13.663 2°55.955 2.5 23 5.3 102200 100
2008-02-21 08:08:34 51°13.662 2°55.955 3.4 6 5.3 102200 100
2008-02-21 08:08:39 51°13.663 2°55.955 3.2 -999 5.3 102200 100
2008-02-21 08:08:44 51°13.663 2°55.955 2.9 20 5.3 102200 100
2008-02-21 08:08:49 51°13.663 2°55.953 2.8 19 5.3 102200 100
2008-02-21 08:08:53 51°13.663 2°55.952 2.8 29 5.3 102200 100
2008-02-21 08:08:58 51°13.664 2°55.949 3.7 29 5.3 102190 100
2008-02-21 08:09:04 51°13.665 2°55.943 4.8 36 5.3 102190 100
2008-02-21 08:09:09 51°13.666 2°55.938 5.1 25 5.4 102190 100
2008-02-21 08:09:14 51°13.668 2°55.931 4.9 33 5.4 102190 100
2008-02-21 08:09:20 51°13.67 2°55.923 4.7 39 5.4 102200 100
2008-02-21 08:09:26 51°13.672 2°55.914 4.2 40 5.4 102200 100
2008-02-21 08:09:32 51°13.674 2°55.904 4.2 38 5.4 102200 100
2008-02-21 08:09:37 51°13.676 2°55.896 3.6 44 5.4 102200 100
2008-02-21 08:09:42 51°13.678 2°55.888 3.6 39 5.4 102200 100
2008-02-21 08:09:47 51°13.68 2°55.879 2.9 35 5.4 102200 100
2008-02-21 08:09:52 51°13.682 2°55.87 2.7 43 5.4 102190 100
2008-02-21 08:09:57 51°13.683 2°55.862 3.2 42 5.4 102190 100
2008-02-21 08:10:02 51°13.685 2°55.854 3.6 36 5.4 102190 100
2008-02-21 08:10:07 51°13.686 2°55.846 3.7 36 5.4 102190 100
2008-02-21 08:10:12 51°13.688 2°55.838 3.5 33 5.4 102190 100
2008-02-21 08:10:17 51°13.689 2°55.831 3 35 5.4 102190 100
2008-02-21 08:10:22 51°13.69 2°55.824 2.8 41 5.4 102190 100
2008-02-21 08:10:27 51°13.691 2°55.817 2.5 37 5.4 102190 100
2008-02-21 08:10:32 51°13.692 2°55.81 2.3 44 5.4 102190 100
2008-02-21 08:10:37 51°13.694 2°55.804 2 31 5.4 102190 100
2008-02-21 08:10:42 51°13.695 2°55.797 2.4 34 5.4 102190 100
2008-02-21 08:10:46 51°13.696 2°55.792 3.1 38 5.4 102190 100
2008-02-21 08:10:51 51°13.697 2°55.786 3.5 37 5.4 102190 100
2008-02-21 08:10:56 51°13.698 2°55.78 4 35 5.4 102190 100
2008-02-21 08:11:02 51°13.699 2°55.776 2.7 38 5.4 102190 100
2008-02-21 08:11:07 51°13.7 2°55.773 3.1 27 5.4 102190 100
2008-02-21 08:11:12 51°13.7 2°55.772 2.9 32 5.4 102190 100
2008-02-21 08:11:17 51°13.701 2°55.772 2.9 18 5.4 102190 100
2008-02-21 08:11:22 51°13.701 2°55.773 2.9 21 5.4 102190 100
2008-02-21 08:11:27 51°13.702 2°55.775 3.2 34 5.4 102190 100
2008-02-21 08:11:32 51°13.702 2°55.776 3.2 36 5.4 102190 100
2008-02-21 08:11:37 51°13.703 2°55.777 3.2 42 5.4 102190 100
2008-02-21 08:11:41 51°13.703 2°55.778 2.8 24 5.4 102190 100
2008-02-21 08:11:46 51°13.704 2°55.778 2.3 36 5.4 102190 100
2008-02-21 08:11:51 51°13.704 2°55.777 2.3 42 5.4 102180 100
2008-02-21 08:11:56 51°13.704 2°55.775 3 38 5.4 102180 100
2008-02-21 08:12:01 51°13.704 2°55.773 2.4 41 5.4 102190 100
2008-02-21 08:12:05 51°13.704 2°55.771 3.6 35 5.4 102190 100
2008-02-21 08:12:10 51°13.704 2°55.769 3.4 26 5.4 102190 100
2008-02-21 08:12:16 51°13.703 2°55.766 3.3 43 5.4 102190 100
2008-02-21 08:12:21 51°13.703 2°55.763 3.7 25 5.4 102190 100
2008-02-21 08:12:26 51°13.702 2°55.759 4.6 37 5.4 102190 100
2008-02-21 08:12:32 51°13.701 2°55.756 6 20 5.4 102190 100
2008-02-21 08:12:37 51°13.701 2°55.753 5.3 32 5.4 102190 100
2008-02-21 08:12:42 51°13.701 2°55.75 5.8 23 5.4 102190 100
2008-02-21 08:12:47 51°13.701 2°55.748 6.1 36 5.4 102190 100
2008-02-21 08:12:52 51°13.701 2°55.747 5.7 24 5.4 102190 100
2008-02-21 08:12:57 51°13.701 2°55.747 4.2 38 5.4 102190 100
2008-02-21 08:13:02 51°13.702 2°55.746 4.3 27 5.4 102190 100
2008-02-21 08:13:07 51°13.703 2°55.747 2.8 42 5.4 102190 100
2008-02-21 08:13:12 51°13.704 2°55.747 2.8 25 5.4 102180 100
2008-02-21 08:13:17 51°13.706 2°55.748 3.4 36 5.4 102180 100
2008-02-21 08:13:22 51°13.708 2°55.75 4.4 19 5.4 102190 100
2008-02-21 08:13:27 51°13.71 2°55.75 2.9 37 5.4 102190 100
2008-02-21 08:13:32 51°13.711 2°55.751 3.5 25 5.4 102190 100
2008-02-21 08:13:37 51°13.712 2°55.751 3 36 5.4 102190 100
2008-02-21 08:13:42 51°13.713 2°55.751 3.7 23 5.4 102190 100
2008-02-21 08:13:47 51°13.712 2°55.751 2.7 31 5.4 102190 100
2008-02-21 08:13:52 51°13.71 2°55.75 2.3 21 5.4 102190 100
2008-02-21 08:13:57 51°13.709 2°55.749 5.1 33 5.4 102190 100
2008-02-21 08:14:02 51°13.707 2°55.749 5 20 5.4 102190 100
2008-02-21 08:14:07 51°13.705 2°55.748 4.8 38 5.4 102190 100
2008-02-21 08:14:12 51°13.704 2°55.747 4.5 20 5.5 102190 100
2008-02-21 08:14:17 51°13.704 2°55.747 6.6 32 5.5 102190 100
2008-02-21 08:14:22 51°13.704 2°55.746 7.2 27 5.6 102190 100
2008-02-21 08:14:27 51°13.706 2°55.745 4.2 32 5.6 102190 100
2008-02-21 08:14:32 51°13.708 2°55.743 3.9 78 5.6 102190 100
2008-02-21 08:14:37 51°13.712 2°55.74 3.3 33 5.6 102190 100
2008-02-21 08:14:42 51°13.717 2°55.735 3.3 20 5.6 102200 100
2008-02-21 08:14:47 51°13.723 2°55.73 2.4 37 5.6 102200 100
2008-02-21 08:14:52 51°13.729 2°55.724 2.5 268 5.6 102190 100
2008-02-21 08:14:57 51°13.737 2°55.717 1.5 249 5.6 102190 100
2008-02-21 08:15:02 51°13.745 2°55.71 1.8 255 5.6 102190 100
2008-02-21 08:15:06 51°13.752 2°55.704 2.2 316 5.6 102190 100
2008-02-21 08:15:11 51°13.761 2°55.696 2.7 23 5.6 102190 100
2008-02-21 08:15:16 51°13.77 2°55.688 3.7 241 5.6 102190 100
2008-02-21 08:15:21 51°13.78 2°55.68 3 25 5.6 102180 100
2008-02-21 08:15:26 51°13.789 2°55.672 4.7 244 5.6 102180 100
2008-02-21 08:15:31 51°13.799 2°55.665 4.6 22 5.6 102190 100
2008-02-21 08:15:35 51°13.807 2°55.659 5.6 250 5.6 102190 100
2008-02-21 08:15:40 51°13.816 2°55.651 4.2 250 5.6 102190 100
2008-02-21 08:15:45 51°13.827 2°55.644 3.3 244 5.6 102190 100
2008-02-21 08:15:50 51°13.836 2°55.636 3.9 26 5.6 102190 100
2008-02-21 08:15:55 51°13.846 2°55.629 2.7 317 5.6 102190 100
2008-02-21 08:16:00 51°13.856 2°55.622 3.5 315 5.6 102190 100
2008-02-21 08:16:05 51°13.865 2°55.615 2 329 5.6 102190 100
2008-02-21 08:16:09 51°13.872 2°55.609 3.3 319 5.6 102190 100
2008-02-21 08:16:14 51°13.881 2°55.602 3.2 318 5.6 102190 100
2008-02-21 08:16:19 51°13.89 2°55.596 3.1 319 5.6 102190 100
2008-02-21 08:16:24 51°13.899 2°55.589 3.3 321 5.6 102190 100
2008-02-21 08:16:29 51°13.907 2°55.583 3.7 318 5.6 102190 100
2008-02-21 08:16:34 51°13.915 2°55.576 3.1 32 5.6 102190 100
2008-02-21 08:16:38 51°13.922 2°55.571 3.7 244 5.6 102190 100
2008-02-21 08:16:43 51°13.93 2°55.565 3.9 242 5.6 102190 100
2008-02-21 08:16:49 51°13.939 2°55.557 3.1 244 5.6 102190 100
2008-02-21 08:16:53 51°13.946 2°55.552 3.3 255 5.6 102190 100
2008-02-21 08:16:58 51°13.954 2°55.546 3 20 5.6 102190 100
2008-02-21 08:17:03 51°13.962 2°55.54 3.4 243 5.6 102190 100
2008-02-21 08:17:08 51°13.97 2°55.534 4.8 251 5.6 102190 100
2008-02-21 08:17:14 51°13.979 2°55.526 4.4 255 5.6 102190 100
2008-02-21 08:17:18 51°13.986 2°55.522 2.7 260 5.6 102190 100
2008-02-21 08:17:23 51°13.993 2°55.516 1.7 267 5.6 102190 100
2008-02-21 08:17:28 51°14.001 2°55.51 1.7 265 5.6 102200 100
2008-02-21 08:17:33 51°14.008 2°55.505 3.3 253 5.6 102200 100
2008-02-21 08:17:39 51°14.017 2°55.499 2.3 253 5.6 102190 100
2008-02-21 08:17:44 51°14.025 2°55.494 2.9 252 5.6 102190 100
2008-02-21 08:17:49 51°14.031 2°55.489 2.1 258 5.6 102190 100
2008-02-21 08:17:54 51°14.038 2°55.484 1.6 254 5.6 102190 100
2008-02-21 08:18:00 51°14.046 2°55.478 2.1 249 5.6 102190 100
2008-02-21 08:18:06 51°14.054 2°55.471 3 315 5.6 102190 100
2008-02-21 08:18:12 51°14.062 2°55.465 3.3 255 5.6 102190 100
2008-02-21 08:18:17 51°14.069 2°55.459 2.5 237 5.6 102190 100
2008-02-21 08:18:22 51°14.076 2°55.454 2.6 19 5.6 102190 100
2008-02-21 08:18:27 51°14.084 2°55.447 2.5 238 5.6 102190 100
2008-02-21 08:18:32 51°14.092 2°55.441 2.9 24 5.6 102200 100
2008-02-21 08:18:37 51°14.101 2°55.434 5.5 243 5.6 102200 100
2008-02-21 08:18:42 51°14.11 2°55.427 6.9 25 5.7 102190 100
2008-02-21 08:18:47 51°14.12 2°55.419 4.5 36 5.7 102190 100
2008-02-21 08:18:52 51°14.13 2°55.411 6.4 247 5.7 102200 100
2008-02-21 08:18:57 51°14.14 2°55.403 4.5 38 5.7 102200 100
2008-02-21 08:19:02 51°14.151 2°55.394 3.2 25 5.7 102200 100
2008-02-21 08:19:07 51°14.162 2°55.384 3.2 238 5.7 102200 100
2008-02-21 08:19:12 51°14.173 2°55.373 4.7 282 5.7 102190 100
2008-02-21 08:19:17 51°14.184 2°55.361 5 36 5.7 102190 100
2008-02-21 08:19:22 51°14.195 2°55.349 3.5 281 5.7 102190 100
2008-02-21 08:19:27 51°14.206 2°55.336 3.8 325 5.7 102190 100
2008-02-21 08:19:32 51°14.217 2°55.322 4.6 327 5.7 102190 100
2008-02-21 08:19:37 51°14.229 2°55.307 5.5 331 5.7 102190 100
2008-02-21 08:19:42 51°14.239 2°55.292 3.9 316 5.7 102190 100
2008-02-21 08:19:47 51°14.25 2°55.276 6.6 36 5.7 102190 100
2008-02-21 08:19:52 51°14.26 2°55.26 6.2 26 5.7 102200 100
2008-02-21 08:19:57 51°14.27 2°55.243 7 234 5.7 102200 100
2008-02-21 08:20:02 51°14.28 2°55.226 8.3 22 5.7 102190 100
2008-02-21 08:20:06 51°14.288 2°55.213 6.9 35 5.7 102190 100
2008-02-21 08:20:11 51°14.298 2°55.195 7.7 20 5.7 102190 100
2008-02-21 08:20:16 51°14.307 2°55.177 8.3 234 5.7 102190 100
2008-02-21 08:20:21 51°14.317 2°55.159 7.3 282 5.7 102180 100
2008-02-21 08:20:26 51°14.326 2°55.14 7.6 37 5.7 102180 100
2008-02-21 08:20:30 51°14.334 2°55.125 6.3 21 5.8 102180 100
2008-02-21 08:20:35 51°14.343 2°55.106 8.9 319 5.8 102180 100
2008-02-21 08:20:40 51°14.353 2°55.085 9.4 22 5.8 102180 100
2008-02-21 08:20:45 51°14.362 2°55.065 9.1 235 5.8 102180 100
2008-02-21 08:20:50 51°14.371 2°55.043 9.5 25 5.8 102180 100
2008-02-21 08:20:55 51°14.38 2°55.022 11.5 34 5.8 102180 100
2008-02-21 08:21:00 51°14.389 2°55 13.3 23 5.8 102180 100
2008-02-21 08:21:05 51°14.399 2°54.978 10.3 239 5.8 102180 100
2008-02-21 08:21:09 51°14.406 2°54.96 11.4 19 5.8 102190 100
2008-02-21 08:21:14 51°14.414 2°54.936 10.6 236 5.8 102190 100
2008-02-21 08:21:19 51°14.422 2°54.912 10.2 22 5.8 102170 100
2008-02-21 08:21:24 51°14.431 2°54.888 10.1 240 5.8 102170 100
2008-02-21 08:21:29 51°14.439 2°54.864 10.7 24 5.8 102180 100
2008-02-21 08:21:34 51°14.448 2°54.84 13.8 239 5.8 102180 100
2008-02-21 08:21:38 51°14.456 2°54.821 10.8 25 5.8 102170 100
2008-02-21 08:21:43 51°14.465 2°54.797 11.5 237 5.8 102170 100
2008-02-21 08:21:49 51°14.476 2°54.768 12 28 5.8 102170 100
2008-02-21 08:21:54 51°14.485 2°54.744 12.6 32 5.8 102170 100
2008-02-21 08:21:58 51°14.492 2°54.724 10.4 24 5.8 102170 100
2008-02-21 08:22:03 51°14.5 2°54.699 11.4 31 5.8 102170 100
2008-02-21 08:22:09 51°14.509 2°54.669 14.9 20 5.9 102170 100
2008-02-21 08:22:13 51°14.515 2°54.648 11.6 236 5.9 102170 100
2008-02-21 08:22:18 51°14.52 2°54.621 14.1 26 5.9 102170 100
2008-02-21 08:22:24 51°14.526 2°54.589 14.6 234 5.9 102170 100
2008-02-21 08:22:29 51°14.531 2°54.562 14.5 23 5.9 102180 100
2008-02-21 08:22:33 51°14.533 2°54.54 13.5 35 5.9 102180 100
2008-02-21 08:22:38 51°14.535 2°54.512 14.4 26 5.9 102170 100
2008-02-21 08:22:44 51°14.535 2°54.479 15 32 5.9 102170 100
2008-02-21 08:22:49 51°14.534 2°54.451 14.8 23 5.9 102170 100
2008-02-21 08:22:53 51°14.532 2°54.429 13.5 316 5.9 102170 100
2008-02-21 08:22:58 51°14.529 2°54.401 14.9 25 5.9 102170 100
2008-02-21 08:23:04 51°14.523 2°54.369 13.1 318 5.9 102170 100
2008-02-21 08:23:09 51°14.518 2°54.343 13 317 5.9 102150 100
2008-02-21 08:23:14 51°14.511 2°54.317 16.5 322 5.9 102150 100
2008-02-21 08:23:18 51°14.505 2°54.297 14.5 323 5.9 102160 100
2008-02-21 08:23:23 51°14.496 2°54.273 13.8 324 5.9 102160 100
2008-02-21 08:23:29 51°14.486 2°54.244 16 282 6 102160 100
2008-02-21 08:23:34 51°14.476 2°54.22 15.6 324 6 102160 100
2008-02-21 08:23:38 51°14.469 2°54.2 14.2 324 6 102160 100
2008-02-21 08:23:43 51°14.459 2°54.177 14.9 324 6 102160 100
2008-02-21 08:23:49 51°14.448 2°54.148 16.1 323 6 102160 100
2008-02-21 08:23:53 51°14.441 2°54.128 15.1 321 6 102160 100
2008-02-21 08:23:58 51°14.432 2°54.104 15.4 321 6 102170 100
2008-02-21 08:24:03 51°14.424 2°54.079 15.9 322 6 102170 100
2008-02-21 08:24:09 51°14.414 2°54.049 13.6 321 6 102160 100
2008-02-21 08:24:14 51°14.406 2°54.023 13.7 322 6 102160 100
2008-02-21 08:24:18 51°14.4 2°54.003 15.1 320 6 102160 100
2008-02-21 08:24:23 51°14.393 2°53.977 15.8 319 6 102160 100
2008-02-21 08:24:29 51°14.384 2°53.946 13.9 319 6 102160 100
2008-02-21 08:24:34 51°14.377 2°53.919 12.7 319 6 102160 100
2008-02-21 08:24:39 51°14.37 2°53.893 13.1 319 6 102160 100
2008-02-21 08:24:44 51°14.364 2°53.866 16.1 320 6 102160 100
2008-02-21 08:24:48 51°14.358 2°53.845 13.8 319 6 102160 100
2008-02-21 08:24:53 51°14.351 2°53.819 13.4 320 6 102160 100
2008-02-21 08:24:58 51°14.344 2°53.793 13.6 282 6 102170 100
2008-02-21 08:25:04 51°14.336 2°53.761 15.7 319 6 102170 100
2008-02-21 08:25:09 51°14.328 2°53.734 13.9 319 6.1 102160 100
2008-02-21 08:25:13 51°14.323 2°53.713 13.7 321 6.1 102160 100
2008-02-21 08:25:18 51°14.316 2°53.687 14.6 321 6.1 102160 100
2008-02-21 08:25:24 51°14.306 2°53.656 15.2 321 6.1 102160 100
2008-02-21 08:25:29 51°14.299 2°53.63 13.6 320 6.1 102160 100
2008-02-21 08:25:34 51°14.291 2°53.604 13.2 319 6.1 102160 100
2008-02-21 08:25:38 51°14.285 2°53.583 12.5 318 6.1 102160 100
2008-02-21 08:25:43 51°14.278 2°53.557 12.9 319 6.1 102160 100
2008-02-21 08:25:49 51°14.27 2°53.525 15.1 320 6.1 102160 100
2008-02-21 08:25:54 51°14.262 2°53.499 15.2 318 6.1 102160 100
2008-02-21 08:25:58 51°14.257 2°53.477 15 317 6.1 102160 100
2008-02-21 08:26:04 51°14.249 2°53.445 15.9 318 6.1 102160 100
2008-02-21 08:26:09 51°14.243 2°53.418 13.7 317 6.1 102160 100
2008-02-21 08:26:14 51°14.236 2°53.391 13.6 318 6.1 102160 100
2008-02-21 08:26:18 51°14.231 2°53.37 14.1 285 6.1 102160 100
2008-02-21 08:26:23 51°14.225 2°53.343 15.3 318 6.1 102160 100
2008-02-21 08:26:28 51°14.218 2°53.316 13.2 318 6.1 102160 100
2008-02-21 08:26:34 51°14.21 2°53.284 13.9 318 6.1 102160 100
2008-02-21 08:26:38 51°14.205 2°53.262 15.3 279 6.1 102140 100
2008-02-21 08:26:43 51°14.197 2°53.236 15 319 6.1 102140 100
2008-02-21 08:26:49 51°14.189 2°53.204 15 317 6.1 102170 100
2008-02-21 08:26:53 51°14.183 2°53.183 11.5 320 6.1 102170 100
2008-02-21 08:26:59 51°14.174 2°53.151 14.5 320 6.1 102160 100
2008-02-21 08:27:03 51°14.168 2°53.13 12.5 320 6.1 102160 100
2008-02-21 08:27:09 51°14.16 2°53.098 12.2 318 6.1 102160 100
2008-02-21 08:27:13 51°14.154 2°53.077 12.4 320 6.1 102160 100
2008-02-21 08:27:18 51°14.147 2°53.051 14.7 318 6.1 102170 99
2008-02-21 08:27:24 51°14.138 2°53.019 13.2 316 6.1 102170 99
2008-02-21 08:27:28 51°14.133 2°52.998 12.6 318 6 102170 99
2008-02-21 08:27:33 51°14.125 2°52.971 15.5 316 6 102170 99
2008-02-21 08:27:38 51°14.119 2°52.944 13.7 319 6 102160 99
2008-02-21 08:27:44 51°14.111 2°52.912 13 317 6 102160 99
2008-02-21 08:27:49 51°14.104 2°52.885 12.9 316 6 102160 99
2008-02-21 08:27:53 51°14.098 2°52.864 15 318 6 102160 99
2008-02-21 08:27:58 51°14.091 2°52.837 12.4 319 6.1 102150 99
2008-02-21 08:28:03 51°14.084 2°52.81 13.7 320 6.1 102150 99
2008-02-21 08:28:09 51°14.075 2°52.779 12.8 320 6.1 102160 99
2008-02-21 08:28:13 51°14.069 2°52.758 12.6 319 6.1 102160 99
2008-02-21 08:28:18 51°14.061 2°52.732 15 318 6.1 102160 99
2008-02-21 08:28:23 51°14.053 2°52.706 12.5 319 6.1 102160 99
2008-02-21 08:28:29 51°14.044 2°52.674 12.1 320 6 102160 99
2008-02-21 08:28:33 51°14.038 2°52.653 15.1 318 6 102160 99
2008-02-21 08:28:38 51°14.03 2°52.627 13.3 319 6 102170 99
2008-02-21 08:28:44 51°14.021 2°52.596 15.6 319 6 102170 99
2008-02-21 08:28:49 51°14.013 2°52.57 15.7 319 6.1 102160 99
2008-02-21 08:28:54 51°14.005 2°52.544 13.6 320 6.1 102160 99
2008-02-21 08:28:58 51°13.998 2°52.524 13 285 6 102160 99
2008-02-21 08:29:04 51°13.988 2°52.493 14.9 321 6 102160 99
2008-02-21 08:29:09 51°13.979 2°52.468 14.7 321 6 102170 99
2008-02-21 08:29:13 51°13.972 2°52.448 13.4 323 6 102170 99
2008-02-21 08:29:18 51°13.963 2°52.422 14.4 283 6 102150 99
2008-02-21 08:29:23 51°13.954 2°52.398 13.5 323 6 102150 99
2008-02-21 08:29:28 51°13.945 2°52.373 15.5 321 6 102170 99
2008-02-21 08:29:33 51°13.935 2°52.349 14.5 321 6 102170 99
2008-02-21 08:29:38 51°13.924 2°52.325 13.7 323 6 102160 99
2008-02-21 08:29:43 51°13.914 2°52.301 12.9 322 6 102160 99
2008-02-21 08:29:49 51°13.901 2°52.273 12.9 324 6 102160 99
2008-02-21 08:29:53 51°13.893 2°52.255 12.7 323 6 102160 99
2008-02-21 08:29:58 51°13.881 2°52.232 12.8 323 6 102170 99
2008-02-21 08:30:03 51°13.871 2°52.208 13.5 323 6 102170 99
2008-02-21 08:30:08 51°13.86 2°52.185 14.9 280 6 102170 99
2008-02-21 08:30:13 51°13.85 2°52.161 14.2 323 6 102170 99
2008-02-21 08:30:18 51°13.84 2°52.137 14.9 323 6 102170 99
2008-02-21 08:30:23 51°13.831 2°52.112 12.7 322 6 102170 99
2008-02-21 08:30:28 51°13.821 2°52.088 12.1 322 6 102170 99
2008-02-21 08:30:33 51°13.812 2°52.063 14.3 321 6 102170 99
2008-02-21 08:30:38 51°13.802 2°52.038 12.5 320 6 102160 99
2008-02-21 08:30:43 51°13.793 2°52.013 13.6 323 6 102160 99
2008-02-21 08:30:48 51°13.784 2°51.988 14.9 320 6 102170 99
2008-02-21 08:30:53 51°13.775 2°51.963 12.4 321 6 102170 99
2008-02-21 08:30:58 51°13.766 2°51.938 13.1 277 6 102160 99
2008-02-21 08:31:03 51°13.757 2°51.912 13.1 324 6 102160 99
2008-02-21 08:31:08 51°13.748 2°51.887 13.7 323 6 102160 99
2008-02-21 08:31:13 51°13.738 2°51.863 14.6 322 6 102160 99
2008-02-21 08:31:18 51°13.729 2°51.838 15 322 6 102160 99
2008-02-21 08:31:23 51°13.719 2°51.813 14.4 321 6 102160 99
2008-02-21 08:31:28 51°13.71 2°51.789 13.8 323 6 102160 99
2008-02-21 08:31:33 51°13.7 2°51.764 14.4 323 6 102160 99
2008-02-21 08:31:38 51°13.69 2°51.74 15.1 322 6 102160 99
2008-02-21 08:31:43 51°13.681 2°51.715 13.9 324 6 102160 99
2008-02-21 08:31:48 51°13.671 2°51.69 15.8 320 6.1 102170 99
2008-02-21 08:31:53 51°13.662 2°51.666 15 324 6.1 102170 99
2008-02-21 08:31:58 51°13.652 2°51.641 13.5 322 6.1 102170 99
2008-02-21 08:32:03 51°13.643 2°51.616 15.1 324 6.1 102170 99
2008-02-21 08:32:08 51°13.634 2°51.591 16.3 324 6.1 102170 99
2008-02-21 08:32:13 51°13.625 2°51.566 16 322 6.1 102170 99
2008-02-21 08:32:18 51°13.616 2°51.541 16.1 322 6.2 102170 99
2008-02-21 08:32:23 51°13.607 2°51.516 13.7 322 6.2 102170 99
2008-02-21 08:32:28 51°13.598 2°51.49 16.2 324 6.2 102170 100
2008-02-21 08:32:33 51°13.59 2°51.465 14.9 324 6.2 102170 100
2008-02-21 08:32:38 51°13.581 2°51.44 17 322 6.2 102170 100
2008-02-21 08:32:43 51°13.572 2°51.415 16.5 323 6.2 102170 100
2008-02-21 08:32:48 51°13.563 2°51.39 16.5 323 6.3 102160 100
2008-02-21 08:32:53 51°13.553 2°51.366 15.9 323 6.3 102160 100
2008-02-21 08:32:58 51°13.544 2°51.341 14.7 323 6.3 102160 100
2008-02-21 08:33:03 51°13.535 2°51.316 15.2 323 6.3 102160 100
2008-02-21 08:33:08 51°13.526 2°51.291 16.6 321 6.3 102170 100
2008-02-21 08:33:13 51°13.517 2°51.266 16.1 322 6.3 102170 100
2008-02-21 08:33:18 51°13.507 2°51.241 16 322 6.3 102170 100
2008-02-21 08:33:23 51°13.498 2°51.217 16.6 323 6.3 102170 100
2008-02-21 08:33:28 51°13.489 2°51.192 14.1 324 6.4 102170 100
2008-02-21 08:33:33 51°13.48 2°51.167 15.2 324 6.4 102170 100
2008-02-21 08:33:38 51°13.471 2°51.142 16.9 284 6.4 102170 100
2008-02-21 08:33:43 51°13.462 2°51.117 15.1 322 6.4 102170 100
2008-02-21 08:33:48 51°13.453 2°51.092 16.3 322 6.4 102170 100
2008-02-21 08:33:53 51°13.443 2°51.067 14.3 323 6.4 102170 100
2008-02-21 08:33:58 51°13.435 2°51.042 15 323 6.4 102170 100
2008-02-21 08:34:03 51°13.425 2°51.017 17.5 323 6.4 102170 100
2008-02-21 08:34:08 51°13.416 2°50.993 17.7 323 6.4 102170 100
2008-02-21 08:34:13 51°13.407 2°50.968 17 325 6.4 102170 100
2008-02-21 08:34:18 51°13.398 2°50.943 15.5 323 6.5 102170 100
2008-02-21 08:34:23 51°13.389 2°50.918 16.5 321 6.5 102170 100
2008-02-21 08:34:28 51°13.38 2°50.893 16.4 282 6.5 102170 99
2008-02-21 08:34:33 51°13.371 2°50.868 16.4 324 6.5 102170 99
2008-02-21 08:34:38 51°13.361 2°50.843 15.5 323 6.5 102180 99
2008-02-21 08:34:43 51°13.352 2°50.818 14.5 323 6.5 102180 99
2008-02-21 08:34:48 51°13.343 2°50.793 14.6 323 6.5 102170 99
2008-02-21 08:34:53 51°13.334 2°50.768 16 321 6.5 102170 99
2008-02-21 08:34:58 51°13.325 2°50.743 14.9 324 6.5 102160 99
2008-02-21 08:35:03 51°13.316 2°50.718 14.9 323 6.5 102160 99
2008-02-21 08:35:08 51°13.307 2°50.693 15.6 321 6.5 102180 99
2008-02-21 08:35:13 51°13.298 2°50.668 16 321 6.5 102180 99
2008-02-21 08:35:18 51°13.288 2°50.643 16 323 6.6 102160 99
2008-02-21 08:35:23 51°13.28 2°50.618 16.8 324 6.6 102160 99
2008-02-21 08:35:28 51°13.27 2°50.592 16.9 323 6.6 102170 99
2008-02-21 08:35:33 51°13.261 2°50.567 15 323 6.6 102170 99
2008-02-21 08:35:38 51°13.252 2°50.542 17.6 323 6.6 102180 99
2008-02-21 08:35:43 51°13.244 2°50.517 14.2 322 6.6 102180 99
2008-02-21 08:35:48 51°13.234 2°50.491 15 323 6.6 102170 99
2008-02-21 08:35:53 51°13.226 2°50.466 13.8 323 6.6 102170 99
2008-02-21 08:35:58 51°13.217 2°50.44 13.4 281 6.6 102170 99
2008-02-21 08:36:03 51°13.209 2°50.414 16.7 322 6.6 102170 99
2008-02-21 08:36:08 51°13.2 2°50.388 15.4 322 6.6 102170 99
2008-02-21 08:36:13 51°13.192 2°50.362 15.3 323 6.6 102170 99
2008-02-21 08:36:18 51°13.183 2°50.336 14.6 322 6.6 102180 99
2008-02-21 08:36:23 51°13.174 2°50.31 15.8 324 6.6 102180 99
2008-02-21 08:36:28 51°13.165 2°50.285 14.7 322 6.6 102170 99
2008-02-21 08:36:33 51°13.156 2°50.259 14.6 322 6.6 102170 99
2008-02-21 08:36:38 51°13.146 2°50.234 16.3 323 6.6 102180 99
2008-02-21 08:36:43 51°13.138 2°50.208 14.3 323 6.6 102180 99
2008-02-21 08:36:48 51°13.128 2°50.182 14.1 324 6.6 102170 99
2008-02-21 08:36:53 51°13.12 2°50.157 14.8 323 6.6 102170 99
2008-02-21 08:36:58 51°13.11 2°50.131 16.4 323 6.6 102170 99
2008-02-21 08:37:03 51°13.101 2°50.105 16.8 323 6.6 102170 99
2008-02-21 08:37:08 51°13.092 2°50.079 15.2 278 6.7 102180 99
2008-02-21 08:37:13 51°13.083 2°50.053 15.1 323 6.7 102180 99
2008-02-21 08:37:18 51°13.074 2°50.027 14.7 322 6.7 102180 99
2008-02-21 08:37:23 51°13.066 2°50.001 17.5 320 6.7 102180 99
2008-02-21 08:37:28 51°13.057 2°49.975 16.9 324 6.7 102190 99
2008-02-21 08:37:33 51°13.048 2°49.949 16.4 324 6.7 102190 99
2008-02-21 08:37:38 51°13.039 2°49.923 14.6 322 6.7 102180 99
2008-02-21 08:37:43 51°13.03 2°49.897 14.6 322 6.7 102180 99
2008-02-21 08:37:48 51°13.022 2°49.87 17.1 322 6.7 102170 99
2008-02-21 08:37:53 51°13.013 2°49.844 14.3 321 6.7 102170 99
2008-02-21 08:37:58 51°13.004 2°49.818 17.1 281 6.7 102190 99
2008-02-21 08:38:03 51°12.995 2°49.792 16.4 323 6.7 102190 99
2008-02-21 08:38:08 51°12.986 2°49.766 14.8 323 6.7 102180 99
2008-02-21 08:38:13 51°12.977 2°49.74 16.3 323 6.7 102180 99
2008-02-21 08:38:18 51°12.968 2°49.715 16.2 322 6.7 102170 99
2008-02-21 08:38:23 51°12.959 2°49.689 14.5 322 6.7 102170 99
2008-02-21 08:38:28 51°12.95 2°49.663 16.2 324 6.7 102180 98
2008-02-21 08:38:33 51°12.941 2°49.637 16.3 322 6.7 102180 98
2008-02-21 08:38:38 51°12.932 2°49.611 14.1 280 6.7 102170 98
2008-02-21 08:38:43 51°12.922 2°49.585 15 322 6.7 102170 98
2008-02-21 08:38:48 51°12.913 2°49.559 16.6 322 6.7 102150 98
2008-02-21 08:38:53 51°12.904 2°49.533 16.9 322 6.7 102150 98
2008-02-21 08:38:58 51°12.896 2°49.507 16.3 322 6.7 102170 98
2008-02-21 08:39:03 51°12.887 2°49.48 17 324 6.7 102170 98
2008-02-21 08:39:08 51°12.878 2°49.454 14.3 321 6.7 102180 98
2008-02-21 08:39:13 51°12.869 2°49.428 14.4 321 6.7 102180 98
2008-02-21 08:39:18 51°12.861 2°49.401 15.2 322 6.7 102180 98
2008-02-21 08:39:23 51°12.852 2°49.375 14.4 322 6.7 102180 98
2008-02-21 08:39:28 51°12.843 2°49.348 13.6 323 6.7 102170 98
2008-02-21 08:39:33 51°12.835 2°49.322 16 323 6.7 102170 98
2008-02-21 08:39:38 51°12.826 2°49.296 14.6 324 6.7 102180 98
2008-02-21 08:39:43 51°12.817 2°49.27 17 323 6.7 102180 98
2008-02-21 08:39:48 51°12.808 2°49.244 15.7 323 6.7 102180 98
2008-02-21 08:39:53 51°12.798 2°49.218 13.3 322 6.7 102180 98
2008-02-21 08:39:58 51°12.789 2°49.191 14.1 322 6.7 102190 98
2008-02-21 08:40:03 51°12.78 2°49.166 16 323 6.7 102190 98
2008-02-21 08:40:08 51°12.771 2°49.139 16.5 323 6.7 102180 98
2008-02-21 08:40:13 51°12.762 2°49.113 15.9 325 6.7 102180 98
2008-02-21 08:40:18 51°12.753 2°49.087 16.7 281 6.7 102180 98
2008-02-21 08:40:23 51°12.744 2°49.061 15.7 323 6.7 102180 98
2008-02-21 08:40:28 51°12.735 2°49.035 15.8 322 6.7 102180 98
2008-02-21 08:40:33 51°12.726 2°49.009 16.2 321 6.7 102180 98
2008-02-21 08:40:38 51°12.717 2°48.982 14.9 283 6.7 102180 98
2008-02-21 08:40:43 51°12.708 2°48.956 14.5 322 6.7 102180 98
2008-02-21 08:40:48 51°12.7 2°48.929 16.2 322 6.7 102170 98
2008-02-21 08:40:53 51°12.691 2°48.903 14.6 322 6.7 102170 98
2008-02-21 08:40:58 51°12.682 2°48.877 15.6 323 6.7 102190 98
2008-02-21 08:41:03 51°12.673 2°48.85 16.5 322 6.7 102190 98
2008-02-21 08:41:08 51°12.665 2°48.824 14.8 322 6.7 102180 98
2008-02-21 08:41:13 51°12.656 2°48.797 14.9 321 6.7 102180 98
2008-02-21 08:41:18 51°12.647 2°48.771 16 321 6.7 102180 98
2008-02-21 08:41:23 51°12.638 2°48.744 14.9 321 6.7 102180 98
2008-02-21 08:41:28 51°12.629 2°48.718 14.1 281 6.7 102180 98
2008-02-21 08:41:33 51°12.621 2°48.691 14.7 321 6.7 102180 98
2008-02-21 08:41:38 51°12.612 2°48.665 13.7 285 6.7 102180 98
2008-02-21 08:41:43 51°12.603 2°48.638 16.4 321 6.7 102180 98
2008-02-21 08:41:48 51°12.594 2°48.612 14.6 322 6.7 102190 98
2008-02-21 08:41:53 51°12.585 2°48.585 16.8 322 6.7 102190 98
2008-02-21 08:41:58 51°12.576 2°48.559 14.1 324 6.7 102170 98
2008-02-21 08:42:03 51°12.567 2°48.533 16 322 6.7 102170 98
2008-02-21 08:42:08 51°12.558 2°48.506 15.9 284 6.7 102170 98
2008-02-21 08:42:13 51°12.549 2°48.48 15.2 323 6.7 102170 98
2008-02-21 08:42:18 51°12.54 2°48.454 14.6 282 6.7 102170 98
2008-02-21 08:42:23 51°12.531 2°48.428 15.9 320 6.7 102170 98
2008-02-21 08:42:28 51°12.522 2°48.402 13.7 322 6.7 102190 98
2008-02-21 08:42:33 51°12.513 2°48.376 13 323 6.7 102190 98
2008-02-21 08:42:38 51°12.504 2°48.35 13.6 322 6.7 102180 98
2008-02-21 08:42:43 51°12.495 2°48.323 13.9 322 6.7 102180 98
2008-02-21 08:42:48 51°12.486 2°48.297 15 322 6.7 102200 98
2008-02-21 08:42:53 51°12.477 2°48.27 15.5 321 6.7 102200 98
2008-02-21 08:42:58 51°12.468 2°48.244 14 282 6.7 102170 98
2008-02-21 08:43:03 51°12.459 2°48.218 16 323 6.7 102170 98
2008-02-21 08:43:08 51°12.45 2°48.191 15.3 283 6.7 102180 98
2008-02-21 08:43:13 51°12.441 2°48.165 13.9 322 6.7 102180 98
2008-02-21 08:43:18 51°12.432 2°48.139 15 280 6.7 102170 98
2008-02-21 08:43:23 51°12.423 2°48.113 13.7 322 6.7 102170 98
2008-02-21 08:43:28 51°12.414 2°48.087 14.2 323 6.7 102180 98
2008-02-21 08:43:33 51°12.405 2°48.06 13.9 323 6.7 102180 98
2008-02-21 08:43:38 51°12.395 2°48.035 14.7 321 6.7 102180 98
2008-02-21 08:43:43 51°12.386 2°48.008 14.7 323 6.7 102180 98
2008-02-21 08:43:48 51°12.377 2°47.982 13.1 323 6.7 102180 98
2008-02-21 08:43:53 51°12.368 2°47.956 13.7 323 6.7 102180 98
2008-02-21 08:43:58 51°12.359 2°47.93 12.9 322 6.7 102180 98
2008-02-21 08:44:03 51°12.35 2°47.904 15.3 321 6.7 102180 98
2008-02-21 08:44:08 51°12.341 2°47.877 16.1 281 6.7 102160 98
2008-02-21 08:44:13 51°12.332 2°47.852 15.4 322 6.7 102160 98
2008-02-21 08:44:18 51°12.322 2°47.825 15.1 321 6.7 102180 98
2008-02-21 08:44:23 51°12.313 2°47.799 16.3 322 6.7 102180 98
2008-02-21 08:44:28 51°12.305 2°47.773 15.7 321 6.7 102180 98
2008-02-21 08:44:33 51°12.295 2°47.746 13.8 322 6.7 102180 98
2008-02-21 08:44:38 51°12.286 2°47.72 14.3 320 6.7 102180 98
2008-02-21 08:44:43 51°12.277 2°47.694 13.2 322 6.7 102180 98
2008-02-21 08:44:48 51°12.268 2°47.668 14.8 322 6.7 102170 98
2008-02-21 08:44:53 51°12.259 2°47.642 13.8 323 6.7 102170 98
2008-02-21 08:44:58 51°12.25 2°47.615 13.4 284 6.7 102190 98
2008-02-21 08:45:03 51°12.24 2°47.59 15.3 323 6.7 102190 98
2008-02-21 08:45:08 51°12.231 2°47.563 13.3 322 6.6 102180 98
2008-02-21 08:45:13 51°12.222 2°47.537 13.1 322 6.6 102180 98
2008-02-21 08:45:18 51°12.213 2°47.511 14.6 284 6.6 102190 98
2008-02-21 08:45:23 51°12.204 2°47.484 15.3 322 6.6 102190 98
2008-02-21 08:45:28 51°12.196 2°47.458 13.2 321 6.6 102180 98
2008-02-21 08:45:33 51°12.187 2°47.431 15.4 322 6.6 102180 98
2008-02-21 08:45:38 51°12.178 2°47.405 13.6 323 6.7 102180 98
2008-02-21 08:45:43 51°12.169 2°47.378 15.8 322 6.7 102180 98
2008-02-21 08:45:48 51°12.16 2°47.352 13.1 321 6.6 102180 98
2008-02-21 08:45:53 51°12.152 2°47.325 13.2 323 6.6 102180 98
2008-02-21 08:45:58 51°12.143 2°47.298 13.9 321 6.6 102180 98
2008-02-21 08:46:03 51°12.134 2°47.272 14.1 323 6.6 102180 98
2008-02-21 08:46:08 51°12.125 2°47.245 15.4 322 6.6 102180 98
2008-02-21 08:46:13 51°12.116 2°47.219 14.8 323 6.6 102180 98
2008-02-21 08:46:18 51°12.107 2°47.192 14.8 323 6.6 102190 98
2008-02-21 08:46:23 51°12.098 2°47.166 13.6 321 6.6 102190 98
2008-02-21 08:46:28 51°12.09 2°47.139 13.8 278 6.6 102180 98
2008-02-21 08:46:33 51°12.082 2°47.112 14.8 321 6.6 102180 98
2008-02-21 08:46:38 51°12.074 2°47.085 15.2 284 6.6 102190 98
2008-02-21 08:46:43 51°12.067 2°47.057 15.2 319 6.6 102190 98
2008-02-21 08:46:48 51°12.06 2°47.029 15.3 320 6.6 102170 98
2008-02-21 08:46:53 51°12.054 2°47.001 14 318 6.6 102170 98
2008-02-21 08:46:58 51°12.048 2°46.973 13.8 319 6.6 102170 98
2008-02-21 08:47:03 51°12.042 2°46.944 13.9 319 6.6 102170 98
2008-02-21 08:47:08 51°12.036 2°46.915 12.7 319 6.6 102170 98
2008-02-21 08:47:13 51°12.03 2°46.887 13.3 320 6.6 102170 98
2008-02-21 08:47:18 51°12.024 2°46.858 12.9 281 6.6 102170 98
2008-02-21 08:47:23 51°12.019 2°46.829 12.3 319 6.6 102170 98
2008-02-21 08:47:28 51°12.014 2°46.8 14.6 318 6.6 102170 98
2008-02-21 08:47:33 51°12.009 2°46.771 12.8 319 6.6 102170 98
2008-02-21 08:47:38 51°12.003 2°46.742 12.8 283 6.6 102180 98
2008-02-21 08:47:43 51°11.999 2°46.713 12.9 319 6.6 102180 98
2008-02-21 08:47:48 51°11.994 2°46.683 12.9 319 6.6 102170 98
2008-02-21 08:47:53 51°11.988 2°46.655 14.8 318 6.6 102170 98
2008-02-21 08:47:58 51°11.983 2°46.625 14.4 319 6.6 102170 98
2008-02-21 08:48:03 51°11.978 2°46.596 12.4 320 6.6 102170 98
2008-02-21 08:48:08 51°11.973 2°46.567 13.5 318 6.6 102170 98
2008-02-21 08:48:13 51°11.968 2°46.538 14 320 6.6 102170 98
2008-02-21 08:48:18 51°11.962 2°46.509 14.6 318 6.6 102170 98
2008-02-21 08:48:23 51°11.957 2°46.48 14.4 320 6.6 102170 98
2008-02-21 08:48:28 51°11.951 2°46.451 14.9 282 6.6 102170 98
2008-02-21 08:48:33 51°11.946 2°46.422 13.9 319 6.6 102170 98
2008-02-21 08:48:38 51°11.94 2°46.393 14.9 320 6.6 102170 98
2008-02-21 08:48:43 51°11.935 2°46.364 13.6 320 6.6 102170 98
2008-02-21 08:48:49 51°11.928 2°46.329 13.5 320 6.6 102170 98
2008-02-21 08:48:53 51°11.924 2°46.306 12.9 320 6.6 102170 98
2008-02-21 08:48:58 51°11.918 2°46.278 14.8 284 6.6 102180 98
2008-02-21 08:49:03 51°11.913 2°46.248 13.8 321 6.6 102180 98
2008-02-21 08:49:08 51°11.907 2°46.22 13.5 320 6.6 102170 98
2008-02-21 08:49:13 51°11.903 2°46.19 13.9 320 6.6 102170 98
2008-02-21 08:49:18 51°11.898 2°46.161 13.1 277 6.6 102170 98
2008-02-21 08:49:23 51°11.894 2°46.132 15.8 319 6.6 102170 98
2008-02-21 08:49:28 51°11.889 2°46.103 14.1 322 6.6 102180 98
2008-02-21 08:49:33 51°11.885 2°46.073 16.8 320 6.6 102180 98
2008-02-21 08:49:38 51°11.881 2°46.044 13.6 319 6.7 102160 98
2008-02-21 08:49:43 51°11.877 2°46.014 16.1 320 6.7 102160 98
2008-02-21 08:49:48 51°11.873 2°45.985 13.8 316 6.7 102170 98
2008-02-21 08:49:53 51°11.869 2°45.955 13.5 320 6.7 102170 98
2008-02-21 08:49:58 51°11.865 2°45.926 14.1 284 6.7 102170 98
2008-02-21 08:50:03 51°11.861 2°45.896 13.7 320 6.7 102170 98
2008-02-21 08:50:08 51°11.856 2°45.867 14.5 278 6.7 102160 98
2008-02-21 08:50:13 51°11.852 2°45.838 15 322 6.7 102160 98
2008-02-21 08:50:18 51°11.847 2°45.808 15.3 321 6.8 102170 98
2008-02-21 08:50:23 51°11.843 2°45.779 13.3 321 6.8 102170 98
2008-02-21 08:50:28 51°11.838 2°45.75 14.8 319 6.7 102170 98
2008-02-21 08:50:33 51°11.834 2°45.721 15 320 6.7 102170 98
2008-02-21 08:50:38 51°11.829 2°45.692 14 319 6.8 102170 98
2008-02-21 08:50:43 51°11.824 2°45.662 13.2 322 6.8 102170 98
2008-02-21 08:50:48 51°11.82 2°45.633 13.4 320 6.8 102170 98
2008-02-21 08:50:53 51°11.815 2°45.604 14.4 319 6.8 102170 98
2008-02-21 08:50:58 51°11.81 2°45.575 13.5 279 6.8 102160 98
2008-02-21 08:51:03 51°11.806 2°45.546 13.5 320 6.8 102160 98
2008-02-21 08:51:08 51°11.801 2°45.517 13.1 284 6.8 102160 98
2008-02-21 08:51:13 51°11.797 2°45.488 16.3 319 6.8 102160 98
2008-02-21 08:51:18 51°11.793 2°45.459 15 320 6.8 102170 98
2008-02-21 08:51:23 51°11.789 2°45.429 13.7 321 6.8 102170 98
2008-02-21 08:51:28 51°11.784 2°45.4 14.8 320 6.8 102160 98
2008-02-21 08:51:33 51°11.78 2°45.371 16 321 6.8 102160 98
2008-02-21 08:51:38 51°11.776 2°45.341 16 286 6.9 102170 98
2008-02-21 08:51:43 51°11.772 2°45.312 15.9 319 6.9 102170 98
2008-02-21 08:51:48 51°11.768 2°45.283 16.1 319 6.9 102170 98
2008-02-21 08:51:53 51°11.764 2°45.254 14.8 321 6.9 102170 98
2008-02-21 08:51:58 51°11.759 2°45.225 14.1 286 6.9 102170 98
2008-02-21 08:52:03 51°11.755 2°45.195 14.4 320 6.9 102170 98
2008-02-21 08:52:08 51°11.751 2°45.166 14.5 320 6.9 102160 98
2008-02-21 08:52:13 51°11.746 2°45.137 14.8 320 6.9 102160 98
2008-02-21 08:52:18 51°11.742 2°45.108 16.9 284 6.9 102160 98
2008-02-21 08:52:23 51°11.737 2°45.08 16.1 321 6.9 102160 98
2008-02-21 08:52:28 51°11.733 2°45.051 16.6 320 6.9 102160 98
2008-02-21 08:52:33 51°11.728 2°45.022 17.2 321 6.9 102160 98
2008-02-21 08:52:38 51°11.724 2°44.993 16.1 320 7 102160 98
2008-02-21 08:52:43 51°11.719 2°44.964 14.4 321 7 102160 98
2008-02-21 08:52:48 51°11.715 2°44.936 17.3 319 7 102160 98
2008-02-21 08:52:53 51°11.71 2°44.907 16.3 321 7 102160 98
2008-02-21 08:52:58 51°11.706 2°44.878 15.6 319 7 102160 98
2008-02-21 08:53:03 51°11.702 2°44.849 16.8 321 7 102160 98
2008-02-21 08:53:08 51°11.698 2°44.82 14.6 319 7 102160 98
2008-02-21 08:53:13 51°11.693 2°44.791 15.8 319 7 102160 98
2008-02-21 08:53:18 51°11.689 2°44.762 14.9 321 7 102160 98
2008-02-21 08:53:23 51°11.685 2°44.733 16.3 320 7 102160 98
2008-02-21 08:53:28 51°11.681 2°44.704 16.9 320 7 102160 98
2008-02-21 08:53:33 51°11.677 2°44.676 17.5 321 7 102160 98
2008-02-21 08:53:38 51°11.672 2°44.647 15.9 321 7 102160 98
2008-02-21 08:53:43 51°11.668 2°44.618 15 320 7 102160 98
2008-02-21 08:53:48 51°11.663 2°44.589 15.3 322 7.1 102160 98
2008-02-21 08:53:53 51°11.659 2°44.561 16.8 322 7.1 102160 98
2008-02-21 08:53:58 51°11.655 2°44.532 17.6 320 7.1 102160 98
2008-02-21 08:54:03 51°11.65 2°44.504 16 321 7.1 102160 98
2008-02-21 08:54:08 51°11.646 2°44.475 16.1 321 7.1 102130 98
2008-02-21 08:54:13 51°11.641 2°44.446 15 321 7.1 102130 98
2008-02-21 08:54:18 51°11.637 2°44.417 17.5 323 7.1 102150 98
2008-02-21 08:54:23 51°11.632 2°44.389 16.1 320 7.1 102150 98
2008-02-21 08:54:28 51°11.628 2°44.36 16.2 322 7.1 102150 98
2008-02-21 08:54:33 51°11.623 2°44.332 15.9 321 7.1 102150 98
2008-02-21 08:54:38 51°11.619 2°44.303 14.4 321 7.1 102150 98
2008-02-21 08:54:43 51°11.615 2°44.274 15.1 321 7.1 102150 98
2008-02-21 08:54:48 51°11.611 2°44.246 15.8 322 7.1 102150 98
2008-02-21 08:54:53 51°11.607 2°44.217 14.8 321 7.1 102150 98
2008-02-21 08:54:58 51°11.603 2°44.188 15.6 321 7.2 102160 98
2008-02-21 08:55:03 51°11.599 2°44.159 14.7 321 7.2 102160 98
2008-02-21 08:55:08 51°11.595 2°44.131 17.6 323 7.2 102140 98
2008-02-21 08:55:13 51°11.591 2°44.102 16.1 321 7.2 102140 98
2008-02-21 08:55:18 51°11.587 2°44.074 17.1 320 7.2 102150 98
2008-02-21 08:55:23 51°11.582 2°44.045 15.6 321 7.2 102150 98
2008-02-21 08:55:28 51°11.578 2°44.017 14.8 320 7.2 102150 98
2008-02-21 08:55:33 51°11.573 2°43.988 14.6 321 7.2 102150 98
2008-02-21 08:55:38 51°11.569 2°43.96 16.4 320 7.2 102150 98
2008-02-21 08:55:43 51°11.565 2°43.931 16.4 317 7.2 102150 98
2008-02-21 08:55:48 51°11.561 2°43.902 14.1 322 7.2 102150 98
2008-02-21 08:55:53 51°11.558 2°43.874 18.2 319 7.2 102150 98
2008-02-21 08:55:58 51°11.555 2°43.845 17.3 319 7.2 102160 98
2008-02-21 08:56:03 51°11.552 2°43.816 14.2 319 7.2 102160 98
2008-02-21 08:56:08 51°11.549 2°43.787 14.4 319 7.2 102160 98
2008-02-21 08:56:13 51°11.546 2°43.758 16.9 318 7.2 102160 98
2008-02-21 08:56:18 51°11.543 2°43.73 15.7 321 7.2 102160 98
2008-02-21 08:56:23 51°11.54 2°43.701 15.4 320 7.2 102160 98
2008-02-21 08:56:28 51°11.537 2°43.672 14.3 319 7.3 102160 98
2008-02-21 08:56:33 51°11.534 2°43.643 14.7 319 7.3 102160 98
2008-02-21 08:56:38 51°11.53 2°43.615 16.2 319 7.2 102160 98
2008-02-21 08:56:43 51°11.526 2°43.587 15.2 319 7.2 102160 98
2008-02-21 08:56:48 51°11.523 2°43.558 17.3 321 7.3 102160 98
2008-02-21 08:56:53 51°11.52 2°43.53 16.5 321 7.3 102160 98
2008-02-21 08:56:58 51°11.516 2°43.502 17.2 319 7.3 102150 98
2008-02-21 08:57:03 51°11.513 2°43.473 14.5 318 7.3 102150 98
2008-02-21 08:57:08 51°11.509 2°43.445 14.5 320 7.3 102150 98
2008-02-21 08:57:13 51°11.505 2°43.417 17.3 319 7.3 102150 98
2008-02-21 08:57:18 51°11.502 2°43.389 14.5 319 7.3 102150 98
2008-02-21 08:57:23 51°11.498 2°43.361 14 321 7.3 102150 98
2008-02-21 08:57:28 51°11.493 2°43.334 14.9 321 7.3 102150 98
2008-02-21 08:57:33 51°11.488 2°43.307 16.8 321 7.3 102150 98
2008-02-21 08:57:38 51°11.483 2°43.28 14.1 323 7.3 102160 98
2008-02-21 08:57:43 51°11.476 2°43.253 16.2 324 7.3 102160 98
2008-02-21 08:57:48 51°11.47 2°43.227 15.1 325 7.3 102160 98
2008-02-21 08:57:53 51°11.463 2°43.201 16.2 323 7.3 102160 98
2008-02-21 08:57:58 51°11.456 2°43.175 14.9 324 7.3 102150 98
2008-02-21 08:58:03 51°11.448 2°43.149 14.5 324 7.3 102150 98
2008-02-21 08:58:08 51°11.44 2°43.124 16.1 327 7.3 102150 98
2008-02-21 08:58:13 51°11.432 2°43.098 15.1 323 7.3 102150 98
2008-02-21 08:58:18 51°11.424 2°43.073 18.2 325 7.3 102170 98
2008-02-21 08:58:23 51°11.416 2°43.048 15.6 325 7.3 102170 98
2008-02-21 08:58:28 51°11.408 2°43.022 15.5 326 7.3 102170 98
2008-02-21 08:58:33 51°11.4 2°42.997 14.9 325 7.3 102170 98
2008-02-21 08:58:38 51°11.392 2°42.971 15.9 325 7.3 102160 98
2008-02-21 08:58:43 51°11.384 2°42.946 18 323 7.3 102160 98
2008-02-21 08:58:48 51°11.376 2°42.92 14.8 326 7.3 102170 98
2008-02-21 08:58:53 51°11.368 2°42.894 17.4 326 7.3 102170 98
2008-02-21 08:58:58 51°11.359 2°42.869 15.7 324 7.3 102170 98
2008-02-21 08:59:03 51°11.352 2°42.843 17.9 327 7.3 102170 98
2008-02-21 08:59:08 51°11.344 2°42.817 16.9 326 7.3 102170 98
2008-02-21 08:59:13 51°11.335 2°42.791 15.7 324 7.3 102170 98
2008-02-21 08:59:18 51°11.327 2°42.765 16.1 325 7.4 102170 97
2008-02-21 08:59:23 51°11.319 2°42.74 16.2 326 7.4 102170 97
2008-02-21 08:59:28 51°11.311 2°42.714 17.1 325 7.4 102170 97
2008-02-21 08:59:33 51°11.303 2°42.688 18.1 325 7.4 102170 97
2008-02-21 08:59:38 51°11.296 2°42.662 14.8 324 7.4 102160 97
2008-02-21 08:59:43 51°11.288 2°42.635 17.6 323 7.4 102160 97
2008-02-21 08:59:48 51°11.28 2°42.609 17.5 323 7.4 102170 97
2008-02-21 08:59:53 51°11.273 2°42.583 15.7 324 7.4 102170 97
2008-02-21 08:59:58 51°11.265 2°42.557 15.2 326 7.4 102170 97
2008-02-21 09:00:03 51°11.257 2°42.531 16.2 325 7.4 102170 97
2008-02-21 09:00:08 51°11.25 2°42.504 15.1 325 7.4 102170 97
2008-02-21 09:00:13 51°11.241 2°42.479 17.7 325 7.4 102170 97
2008-02-21 09:00:18 51°11.233 2°42.453 15.3 325 7.4 102170 97
2008-02-21 09:00:23 51°11.225 2°42.427 17.3 324 7.4 102170 97
2008-02-21 09:00:29 51°11.216 2°42.396 14.8 323 7.4 102160 97
2008-02-21 09:00:33 51°11.209 2°42.375 16.3 325 7.4 102160 97
2008-02-21 09:00:38 51°11.201 2°42.349 15 325 7.4 102160 97
2008-02-21 09:00:43 51°11.193 2°42.323 15.7 324 7.4 102160 97
2008-02-21 09:00:48 51°11.185 2°42.297 14.8 326 7.4 102170 97
2008-02-21 09:00:53 51°11.177 2°42.271 17.5 325 7.4 102170 97
2008-02-21 09:00:58 51°11.169 2°42.245 15.1 325 7.5 102170 97
2008-02-21 09:01:03 51°11.161 2°42.219 15.5 326 7.5 102170 97
2008-02-21 09:01:08 51°11.153 2°42.193 17.6 325 7.4 102170 97
2008-02-21 09:01:13 51°11.145 2°42.167 14.3 325 7.4 102170 97
2008-02-21 09:01:18 51°11.137 2°42.141 15.1 325 7.4 102160 97
2008-02-21 09:01:23 51°11.129 2°42.115 15.6 326 7.4 102160 97
2008-02-21 09:01:28 51°11.121 2°42.089 15.5 324 7.5 102170 97
2008-02-21 09:01:33 51°11.113 2°42.063 16.4 324 7.5 102170 97
2008-02-21 09:01:38 51°11.105 2°42.037 14.6 325 7.4 102170 97
2008-02-21 09:01:43 51°11.097 2°42.011 16.4 324 7.4 102170 97
2008-02-21 09:01:48 51°11.089 2°41.984 17.8 324 7.5 102170 97
2008-02-21 09:01:53 51°11.082 2°41.958 15.9 323 7.5 102170 97
2008-02-21 09:01:58 51°11.074 2°41.932 15.3 324 7.5 102170 97
2008-02-21 09:02:03 51°11.066 2°41.905 18.1 325 7.5 102170 97
2008-02-21 09:02:08 51°11.059 2°41.879 15.5 323 7.5 102170 97
2008-02-21 09:02:13 51°11.051 2°41.853 15.8 325 7.5 102170 97
2008-02-21 09:02:18 51°11.043 2°41.826 15 324 7.5 102170 97
2008-02-21 09:02:23 51°11.035 2°41.8 14.6 326 7.5 102170 97
2008-02-21 09:02:28 51°11.027 2°41.774 16.8 326 7.5 102180 97
2008-02-21 09:02:33 51°11.019 2°41.748 16.1 325 7.5 102180 97
2008-02-21 09:02:38 51°11.01 2°41.723 14.7 325 7.5 102180 97
2008-02-21 09:02:43 51°11.002 2°41.697 16.5 325 7.5 102180 97
2008-02-21 09:02:48 51°10.995 2°41.67 13.8 325 7.5 102180 97
2008-02-21 09:02:53 51°10.986 2°41.644 17.1 325 7.5 102180 97
2008-02-21 09:02:58 51°10.979 2°41.617 17.2 326 7.5 102170 97
2008-02-21 09:03:03 51°10.971 2°41.591 15.1 325 7.5 102170 97
2008-02-21 09:03:08 51°10.963 2°41.565 17.5 324 7.5 102170 97
2008-02-21 09:03:13 51°10.955 2°41.538 16.2 325 7.5 102170 97
2008-02-21 09:03:18 51°10.948 2°41.512 16.9 325 7.5 102170 97
2008-02-21 09:03:23 51°10.94 2°41.486 17.1 323 7.5 102170 97
2008-02-21 09:03:28 51°10.932 2°41.459 17.9 326 7.5 102170 97
2008-02-21 09:03:33 51°10.924 2°41.433 16.9 326 7.5 102170 97
2008-02-21 09:03:38 51°10.917 2°41.407 15.4 325 7.5 102180 97
2008-02-21 09:03:43 51°10.908 2°41.381 16.3 325 7.5 102180 97
2008-02-21 09:03:48 51°10.9 2°41.355 16.4 326 7.5 102170 97
2008-02-21 09:03:53 51°10.892 2°41.329 16.9 325 7.5 102170 97
2008-02-21 09:03:58 51°10.884 2°41.303 16.6 325 7.5 102170 97
2008-02-21 09:04:03 51°10.876 2°41.277 16.7 326 7.5 102170 97
2008-02-21 09:04:08 51°10.868 2°41.251 15.8 328 7.5 102170 97
2008-02-21 09:04:13 51°10.859 2°41.225 17.6 326 7.5 102170 97
2008-02-21 09:04:18 51°10.851 2°41.199 17.5 325 7.5 102180 97
2008-02-21 09:04:23 51°10.844 2°41.172 15.1 325 7.5 102180 97
2008-02-21 09:04:28 51°10.835 2°41.147 14.6 325 7.6 102190 97
2008-02-21 09:04:33 51°10.827 2°41.12 15.1 324 7.6 102190 97
2008-02-21 09:04:38 51°10.82 2°41.094 16.1 325 7.6 102170 97
2008-02-21 09:04:43 51°10.811 2°41.068 14.8 324 7.6 102170 97
2008-02-21 09:04:48 51°10.803 2°41.042 16.1 326 7.6 102170 97
2008-02-21 09:04:53 51°10.795 2°41.016 15.3 326 7.6 102170 97
2008-02-21 09:04:58 51°10.787 2°40.99 16.7 325 7.6 102170 97
2008-02-21 09:05:03 51°10.779 2°40.965 16.6 328 7.6 102170 97
2008-02-21 09:05:08 51°10.77 2°40.938 16.8 323 7.6 102170 97
2008-02-21 09:05:13 51°10.763 2°40.912 17.8 325 7.6 102170 97
2008-02-21 09:05:18 51°10.754 2°40.886 15.3 325 7.6 102170 97
2008-02-21 09:05:23 51°10.747 2°40.86 16.8 324 7.6 102170 97
2008-02-21 09:05:28 51°10.739 2°40.834 15.6 324 7.6 102170 97
2008-02-21 09:05:33 51°10.731 2°40.808 16.2 325 7.6 102170 97
2008-02-21 09:05:38 51°10.723 2°40.782 14.4 327 7.6 102180 97
2008-02-21 09:05:43 51°10.715 2°40.755 17 324 7.6 102180 97
2008-02-21 09:05:48 51°10.707 2°40.729 16.9 326 7.6 102170 97
2008-02-21 09:05:53 51°10.699 2°40.703 16.5 325 7.6 102170 97
2008-02-21 09:05:58 51°10.691 2°40.677 15.4 326 7.6 102180 97
2008-02-21 09:06:03 51°10.683 2°40.651 16.1 326 7.6 102180 97
2008-02-21 09:06:08 51°10.675 2°40.625 16.5 325 7.6 102180 97
2008-02-21 09:06:13 51°10.666 2°40.599 16.2 326 7.6 102180 97
2008-02-21 09:06:18 51°10.658 2°40.573 15 327 7.7 102170 97
2008-02-21 09:06:23 51°10.65 2°40.548 14.4 324 7.7 102170 97
2008-02-21 09:06:28 51°10.642 2°40.521 15.3 327 7.7 102180 97
2008-02-21 09:06:33 51°10.634 2°40.496 17.2 326 7.7 102180 97
2008-02-21 09:06:38 51°10.626 2°40.47 15.8 325 7.7 102180 97
2008-02-21 09:06:43 51°10.617 2°40.444 16.8 325 7.7 102180 97
2008-02-21 09:06:48 51°10.609 2°40.417 14.7 324 7.7 102170 97
2008-02-21 09:06:53 51°10.601 2°40.391 15.1 325 7.7 102170 97
2008-02-21 09:06:58 51°10.593 2°40.365 15.4 326 7.7 102180 97
2008-02-21 09:07:03 51°10.585 2°40.339 15 325 7.7 102180 97
2008-02-21 09:07:08 51°10.577 2°40.313 15.1 325 7.7 102180 97
2008-02-21 09:07:13 51°10.569 2°40.287 15.7 326 7.7 102180 97
2008-02-21 09:07:18 51°10.56 2°40.261 16.5 325 7.7 102170 97
2008-02-21 09:07:23 51°10.552 2°40.235 16.4 327 7.7 102170 97
2008-02-21 09:07:28 51°10.544 2°40.209 16.6 325 7.7 102180 96
2008-02-21 09:07:33 51°10.536 2°40.183 16.6 326 7.7 102180 96
2008-02-21 09:07:38 51°10.528 2°40.157 15.4 327 7.7 102180 96
2008-02-21 09:07:43 51°10.52 2°40.13 15.9 326 7.7 102180 96
2008-02-21 09:07:48 51°10.513 2°40.104 16.8 326 7.7 102190 96
2008-02-21 09:07:53 51°10.505 2°40.078 16.3 328 7.7 102190 96
2008-02-21 09:07:58 51°10.497 2°40.051 14.6 326 7.7 102170 96
2008-02-21 09:08:03 51°10.488 2°40.025 14.3 326 7.7 102170 96
2008-02-21 09:08:08 51°10.48 2°39.999 15.2 326 7.7 102180 96
2008-02-21 09:08:13 51°10.472 2°39.973 15.4 327 7.7 102180 96
2008-02-21 09:08:18 51°10.464 2°39.947 17.7 328 7.7 102180 96
2008-02-21 09:08:23 51°10.456 2°39.921 15.4 325 7.7 102180 96
2008-02-21 09:08:28 51°10.447 2°39.895 15.1 325 7.7 102180 96
2008-02-21 09:08:33 51°10.439 2°39.869 14.2 324 7.7 102180 96
2008-02-21 09:08:38 51°10.431 2°39.842 17.3 328 7.7 102190 96
2008-02-21 09:08:43 51°10.423 2°39.816 15.1 326 7.7 102190 96
2008-02-21 09:08:48 51°10.415 2°39.79 16.9 326 7.7 102180 96
2008-02-21 09:08:53 51°10.407 2°39.764 16.3 325 7.7 102180 96
2008-02-21 09:08:58 51°10.399 2°39.737 14.6 326 7.7 102180 96
2008-02-21 09:09:03 51°10.392 2°39.711 15.2 326 7.7 102180 96
2008-02-21 09:09:08 51°10.383 2°39.685 16.1 326 7.7 102180 96
2008-02-21 09:09:13 51°10.375 2°39.658 16.7 327 7.7 102180 96
2008-02-21 09:09:18 51°10.368 2°39.632 17.5 327 7.7 102180 96
2008-02-21 09:09:23 51°10.36 2°39.606 15.8 327 7.7 102180 96
2008-02-21 09:09:29 51°10.35 2°39.574 18 325 7.7 102180 96
2008-02-21 09:09:33 51°10.344 2°39.553 18 325 7.7 102180 96
2008-02-21 09:09:38 51°10.336 2°39.527 16.3 325 7.7 102180 96
2008-02-21 09:09:43 51°10.327 2°39.501 15.3 326 7.7 102180 96
2008-02-21 09:09:48 51°10.319 2°39.475 16 327 7.7 102170 96
2008-02-21 09:09:53 51°10.311 2°39.449 14.9 327 7.7 102170 96
2008-02-21 09:09:58 51°10.303 2°39.423 14.5 325 7.7 102200 96
2008-02-21 09:10:03 51°10.295 2°39.397 15.6 325 7.7 102200 96
2008-02-21 09:10:08 51°10.287 2°39.37 15.4 325 7.8 102170 96
2008-02-21 09:10:13 51°10.279 2°39.344 17.1 325 7.8 102170 96
2008-02-21 09:10:18 51°10.27 2°39.318 16.3 327 7.8 102190 96
2008-02-21 09:10:23 51°10.262 2°39.292 18.2 325 7.8 102190 96
2008-02-21 09:10:28 51°10.254 2°39.266 16.3 328 7.8 102180 96
2008-02-21 09:10:33 51°10.246 2°39.24 17.7 325 7.8 102180 96
2008-02-21 09:10:38 51°10.238 2°39.213 15.8 325 7.8 102190 96
2008-02-21 09:10:43 51°10.229 2°39.187 16.3 326 7.8 102190 96
2008-02-21 09:10:48 51°10.221 2°39.161 17 324 7.8 102180 96
2008-02-21 09:10:53 51°10.213 2°39.135 16 325 7.8 102180 96
2008-02-21 09:10:58 51°10.205 2°39.109 16.3 327 7.8 102200 96
2008-02-21 09:11:03 51°10.197 2°39.083 16.4 327 7.8 102200 96
2008-02-21 09:11:08 51°10.189 2°39.056 18 327 7.8 102180 96
2008-02-21 09:11:13 51°10.18 2°39.03 15.8 324 7.8 102180 96
2008-02-21 09:11:18 51°10.173 2°39.003 16.7 324 7.8 102180 96
2008-02-21 09:11:23 51°10.165 2°38.977 16.7 327 7.8 102180 96
2008-02-21 09:11:28 51°10.157 2°38.951 17.5 326 7.8 102190 96
2008-02-21 09:11:33 51°10.149 2°38.924 17.1 325 7.8 102190 96
2008-02-21 09:11:38 51°10.141 2°38.898 16.5 326 7.8 102180 96
2008-02-21 09:11:43 51°10.133 2°38.872 17.3 325 7.8 102180 96
2008-02-21 09:11:48 51°10.125 2°38.845 16 325 7.8 102160 96
2008-02-21 09:11:53 51°10.116 2°38.819 18 324 7.8 102160 96
2008-02-21 09:11:58 51°10.109 2°38.792 15.3 327 7.9 102180 96
2008-02-21 09:12:03 51°10.101 2°38.766 15.3 326 7.9 102180 96
2008-02-21 09:12:08 51°10.092 2°38.739 17.8 326 7.9 102170 96
2008-02-21 09:12:13 51°10.085 2°38.713 15.7 325 7.9 102170 96
2008-02-21 09:12:18 51°10.076 2°38.687 17.5 327 7.9 102180 96
2008-02-21 09:12:23 51°10.068 2°38.66 15.5 325 7.9 102180 96
2008-02-21 09:12:28 51°10.06 2°38.634 17.3 326 7.9 102190 96
2008-02-21 09:12:33 51°10.052 2°38.608 14.2 326 7.9 102190 96
2008-02-21 09:12:38 51°10.044 2°38.581 17.2 324 7.9 102190 96
2008-02-21 09:12:43 51°10.036 2°38.555 15.7 326 7.9 102190 96
2008-02-21 09:12:48 51°10.027 2°38.529 16.6 325 7.9 102190 96
2008-02-21 09:12:53 51°10.019 2°38.503 18.4 326 7.9 102190 96
2008-02-21 09:12:58 51°10.011 2°38.476 18.4 324 7.9 102190 96
2008-02-21 09:13:03 51°10.003 2°38.45 15.5 326 7.9 102190 96
2008-02-21 09:13:08 51°9.995 2°38.424 16.5 325 7.9 102190 96
2008-02-21 09:13:13 51°9.987 2°38.397 15.2 324 7.9 102190 96
2008-02-21 09:13:18 51°9.978 2°38.371 15 326 7.9 102180 96
2008-02-21 09:13:23 51°9.97 2°38.345 16.6 325 7.9 102180 96
2008-02-21 09:13:28 51°9.962 2°38.318 17.3 325 7.9 102180 96
2008-02-21 09:13:33 51°9.955 2°38.292 15.3 324 7.9 102180 96
2008-02-21 09:13:38 51°9.946 2°38.265 16.4 325 7.9 102180 96
2008-02-21 09:13:43 51°9.939 2°38.239 17.6 326 7.9 102180 96
2008-02-21 09:13:48 51°9.93 2°38.213 15.4 325 7.9 102180 96
2008-02-21 09:13:53 51°9.922 2°38.186 17.5 325 7.9 102180 96
2008-02-21 09:13:58 51°9.914 2°38.16 15.3 325 7.9 102190 96
2008-02-21 09:14:03 51°9.906 2°38.133 16.6 324 7.9 102190 96
2008-02-21 09:14:08 51°9.898 2°38.107 17.6 324 7.9 102190 96
2008-02-21 09:14:13 51°9.891 2°38.08 17.3 325 7.9 102190 96
2008-02-21 09:14:18 51°9.884 2°38.053 15.8 324 7.9 102190 96
2008-02-21 09:14:23 51°9.876 2°38.027 15.7 324 7.9 102190 96
2008-02-21 09:14:28 51°9.87 2°38 16.8 323 7.9 102180 96
2008-02-21 09:14:33 51°9.862 2°37.972 16.9 324 7.9 102180 96
2008-02-21 09:14:38 51°9.856 2°37.945 15.4 325 7.9 102170 96
2008-02-21 09:14:43 51°9.849 2°37.918 15.4 322 7.9 102170 96
2008-02-21 09:14:48 51°9.842 2°37.89 15.8 324 7.9 102180 96
2008-02-21 09:14:53 51°9.835 2°37.863 16.9 326 7.9 102180 96
2008-02-21 09:14:58 51°9.828 2°37.836 15.4 327 7.9 102190 96
2008-02-21 09:15:03 51°9.821 2°37.809 16.6 325 7.9 102190 96
2008-02-21 09:15:08 51°9.814 2°37.782 15.1 324 7.9 102190 96
2008-02-21 09:15:13 51°9.807 2°37.755 17.5 324 7.9 102190 96
2008-02-21 09:15:18 51°9.8 2°37.728 15.4 324 7.9 102190 96
2008-02-21 09:15:23 51°9.792 2°37.701 15.3 325 7.9 102190 96
2008-02-21 09:15:28 51°9.785 2°37.674 15.9 324 7.9 102190 96
2008-02-21 09:15:33 51°9.778 2°37.647 15.4 326 7.9 102190 96
2008-02-21 09:15:38 51°9.771 2°37.62 14.9 324 7.9 102190 96
2008-02-21 09:15:43 51°9.764 2°37.593 17 325 7.9 102190 96
2008-02-21 09:15:48 51°9.757 2°37.566 16.8 324 7.9 102190 96
2008-02-21 09:15:53 51°9.75 2°37.539 14.2 323 7.9 102190 96
2008-02-21 09:15:58 51°9.743 2°37.512 16.5 323 7.9 102190 96
2008-02-21 09:16:03 51°9.736 2°37.484 17.6 324 7.9 102190 96
2008-02-21 09:16:08 51°9.729 2°37.457 14.9 323 7.9 102190 95
2008-02-21 09:16:13 51°9.722 2°37.43 16.7 324 7.9 102190 95
2008-02-21 09:16:18 51°9.715 2°37.403 15.6 324 7.9 102190 95
2008-02-21 09:16:23 51°9.708 2°37.376 17.8 324 7.9 102190 95
2008-02-21 09:16:28 51°9.701 2°37.348 15.6 325 7.9 102190 95
2008-02-21 09:16:33 51°9.694 2°37.322 16.1 323 7.9 102190 95
2008-02-21 09:16:38 51°9.687 2°37.295 15.2 323 7.9 102180 95
2008-02-21 09:16:43 51°9.68 2°37.267 15.3 323 7.9 102180 95
2008-02-21 09:16:48 51°9.672 2°37.24 14.9 323 7.9 102180 95
2008-02-21 09:16:53 51°9.665 2°37.213 17 324 7.9 102180 95
2008-02-21 09:16:58 51°9.658 2°37.186 16 324 7.9 102190 95
2008-02-21 09:17:03 51°9.651 2°37.159 17.8 324 7.9 102190 95
2008-02-21 09:17:08 51°9.644 2°37.133 14.7 324 7.9 102190 95
2008-02-21 09:17:13 51°9.637 2°37.105 15.2 323 7.9 102190 95
2008-02-21 09:17:18 51°9.63 2°37.078 15.6 324 7.9 102180 95
2008-02-21 09:17:23 51°9.623 2°37.051 14 323 7.9 102180 95
2008-02-21 09:17:28 51°9.616 2°37.024 14.5 324 7.9 102180 95
2008-02-21 09:17:33 51°9.609 2°36.997 16.3 324 7.9 102180 95
2008-02-21 09:17:38 51°9.602 2°36.97 15.2 322 7.9 102180 95
2008-02-21 09:17:43 51°9.595 2°36.943 14.9 324 7.9 102180 95
2008-02-21 09:17:48 51°9.588 2°36.916 18 322 7.9 102190 95
2008-02-21 09:17:53 51°9.581 2°36.888 16.2 323 7.9 102190 95
2008-02-21 09:17:58 51°9.574 2°36.861 18.5 324 7.9 102190 95
2008-02-21 09:18:03 51°9.567 2°36.834 14.6 324 7.9 102190 95
2008-02-21 09:18:08 51°9.559 2°36.807 15.8 324 7.9 102190 95
2008-02-21 09:18:13 51°9.552 2°36.78 13.8 324 7.9 102190 95
2008-02-21 09:18:18 51°9.545 2°36.753 16.7 324 7.9 102190 95
2008-02-21 09:18:23 51°9.538 2°36.726 17.2 324 7.9 102190 95
2008-02-21 09:18:28 51°9.531 2°36.698 16.4 325 7.9 102190 95
2008-02-21 09:18:33 51°9.524 2°36.672 15 325 7.9 102190 95
2008-02-21 09:18:38 51°9.517 2°36.644 15 323 7.9 102190 95
2008-02-21 09:18:43 51°9.51 2°36.617 16.5 323 7.9 102190 95
2008-02-21 09:18:48 51°9.504 2°36.59 16.6 325 7.9 102160 95
2008-02-21 09:18:53 51°9.497 2°36.564 14.6 323 7.9 102160 95
2008-02-21 09:18:58 51°9.491 2°36.54 13.6 324 7.9 102170 95
2008-02-21 09:19:03 51°9.485 2°36.517 14.3 325 7.9 102170 95
2008-02-21 09:19:08 51°9.479 2°36.495 12.9 323 7.9 102160 96
2008-02-21 09:19:13 51°9.473 2°36.473 12.9 324 7.9 102160 96
2008-02-21 09:19:18 51°9.468 2°36.452 14 323 7.9 102180 96
2008-02-21 09:19:23 51°9.462 2°36.432 12.6 324 7.9 102180 96
2008-02-21 09:19:28 51°9.458 2°36.413 13.9 323 7.9 102170 96
2008-02-21 09:19:33 51°9.453 2°36.396 13.4 324 7.9 102170 96
2008-02-21 09:19:38 51°9.448 2°36.38 12.3 326 7.9 102190 95
2008-02-21 09:19:43 51°9.443 2°36.366 11.5 327 7.9 102190 95
2008-02-21 09:19:48 51°9.437 2°36.353 12 329 7.9 102200 95
2008-02-21 09:19:53 51°9.431 2°36.342 13.7 332 7.9 102200 95
2008-02-21 09:19:58 51°9.426 2°36.333 12.5 335 7.9 102200 96
2008-02-21 09:20:03 51°9.42 2°36.325 11.9 338 7.9 102200 96
2008-02-21 09:20:08 51°9.414 2°36.319 11.6 340 7.9 102200 96
2008-02-21 09:20:13 51°9.408 2°36.313 12.3 345 7.9 102200 96
2008-02-21 09:20:18 51°9.402 2°36.309 12 345 7.9 102200 96
2008-02-21 09:20:23 51°9.396 2°36.306 10.8 350 7.9 102200 96
2008-02-21 09:20:28 51°9.39 2°36.304 11.2 351 7.9 102210 96
2008-02-21 09:20:33 51°9.384 2°36.303 12.2 358 7.9 102210 96
2008-02-21 09:20:38 51°9.378 2°36.303 12.9 -999 7.9 102200 96
2008-02-21 09:20:43 51°9.373 2°36.304 8.9 4 7.9 102200 96
2008-02-21 09:20:48 51°9.367 2°36.306 10.1 7 7.9 102190 96
2008-02-21 09:20:53 51°9.362 2°36.309 10.7 9 7.9 102190 96
2008-02-21 09:20:58 51°9.357 2°36.313 11.2 10 7.9 102180 96
2008-02-21 09:21:03 51°9.352 2°36.317 10.8 14 7.9 102180 96
2008-02-21 09:21:08 51°9.347 2°36.322 11.2 14 7.9 102180 96
2008-02-21 09:21:13 51°9.343 2°36.328 10.3 16 7.9 102180 96
2008-02-21 09:21:18 51°9.339 2°36.334 10.2 19 7.9 102200 96
2008-02-21 09:21:23 51°9.334 2°36.34 9.3 17 7.9 102200 96
2008-02-21 09:21:28 51°9.33 2°36.348 9.5 17 7.9 102180 96
2008-02-21 09:21:33 51°9.327 2°36.355 9.8 24 7.9 102180 96
2008-02-21 09:21:38 51°9.323 2°36.363 9.3 22 7.9 102180 96
2008-02-21 09:21:43 51°9.319 2°36.371 9.5 20 7.9 102180 96
2008-02-21 09:21:48 51°9.315 2°36.379 9 23 7.9 102190 96
2008-02-21 09:21:53 51°9.311 2°36.388 8.7 22 7.9 102190 96
2008-02-21 09:21:58 51°9.308 2°36.397 10 21 7.9 102200 96
2008-02-21 09:22:03 51°9.305 2°36.406 9.2 26 7.9 102200 96
2008-02-21 09:22:08 51°9.303 2°36.415 9.9 28 7.9 102190 96
2008-02-21 09:22:13 51°9.301 2°36.423 8 30 7.9 102190 96
2008-02-21 09:22:18 51°9.3 2°36.431 8.2 34 7.9 102190 95
2008-02-21 09:22:23 51°9.299 2°36.438 8 34 7.9 102190 95
2008-02-21 09:22:28 51°9.298 2°36.445 6.8 35 7.9 102200 95
2008-02-21 09:22:33 51°9.298 2°36.451 7.9 39 7.9 102200 95
2008-02-21 09:22:38 51°9.298 2°36.458 8.2 40 7.9 102200 95
2008-02-21 09:22:43 51°9.298 2°36.464 7.1 42 7.9 102200 95
2008-02-21 09:22:48 51°9.298 2°36.469 7.1 42 7.9 102200 96
2008-02-21 09:22:53 51°9.298 2°36.475 7.4 36 7.9 102200 96
2008-02-21 09:22:58 51°9.299 2°36.48 7.1 44 7.9 102200 96
2008-02-21 09:23:03 51°9.3 2°36.485 7.1 44 7.9 102200 96
2008-02-21 09:23:08 51°9.3 2°36.49 7.1 23 7.9 102200 96
2008-02-21 09:23:13 51°9.302 2°36.495 7.9 34 7.9 102200 96
2008-02-21 09:23:18 51°9.302 2°36.5 7.3 23 7.9 102200 96
2008-02-21 09:23:23 51°9.303 2°36.504 7.8 38 7.9 102200 96
2008-02-21 09:23:28 51°9.304 2°36.509 6.9 25 7.9 102200 96
2008-02-21 09:23:33 51°9.305 2°36.513 7.8 37 7.9 102200 96
2008-02-21 09:23:38 51°9.306 2°36.517 7.5 45 7.9 102200 96
2008-02-21 09:23:43 51°9.307 2°36.522 7.6 34 7.9 102200 96
2008-02-21 09:23:48 51°9.308 2°36.525 7.6 45 7.9 102200 96
2008-02-21 09:23:53 51°9.308 2°36.53 9 33 7.9 102200 96
2008-02-21 09:23:58 51°9.309 2°36.534 8 21 7.8 102200 96
2008-02-21 09:24:03 51°9.31 2°36.537 8.6 40 7.8 102200 96
2008-02-21 09:24:08 51°9.311 2°36.541 8.8 44 7.8 102200 96
2008-02-21 09:24:13 51°9.311 2°36.545 7.4 44 7.8 102200 96
2008-02-21 09:24:18 51°9.312 2°36.548 8.5 43 7.8 102200 96
2008-02-21 09:24:23 51°9.313 2°36.552 7.7 42 7.8 102200 96
2008-02-21 09:24:28 51°9.313 2°36.555 8 44 7.8 102200 96
2008-02-21 09:24:33 51°9.313 2°36.557 8.9 43 7.8 102200 96
2008-02-21 09:24:38 51°9.314 2°36.56 8.5 24 7.8 102200 96
2008-02-21 09:24:43 51°9.314 2°36.561 9 38 7.8 102200 96
2008-02-21 09:24:48 51°9.314 2°36.563 8.7 42 7.8 102190 96
2008-02-21 09:24:53 51°9.313 2°36.564 8.8 38 7.8 102190 96
2008-02-21 09:24:58 51°9.313 2°36.565 9.1 38 7.8 102190 96
2008-02-21 09:25:03 51°9.313 2°36.566 9.8 39 7.8 102190 96
2008-02-21 09:25:08 51°9.313 2°36.567 9.8 39 7.8 102190 96
2008-02-21 09:25:13 51°9.313 2°36.569 9.5 33 7.8 102190 96
2008-02-21 09:25:18 51°9.313 2°36.57 8.8 37 7.8 102180 96
2008-02-21 09:25:23 51°9.312 2°36.571 9.1 40 7.8 102180 96
2008-02-21 09:25:28 51°9.312 2°36.572 8.5 39 7.8 102180 96
2008-02-21 09:25:33 51°9.312 2°36.574 9.2 40 7.8 102180 96
2008-02-21 09:25:38 51°9.312 2°36.575 9.4 39 7.8 102180 96
2008-02-21 09:25:43 51°9.311 2°36.576 9.9 37 7.8 102180 96
2008-02-21 09:25:48 51°9.311 2°36.578 10.2 37 7.8 102180 96
2008-02-21 09:25:53 51°9.311 2°36.579 9 36 7.8 102180 96
2008-02-21 09:25:58 51°9.311 2°36.581 10.1 39 7.8 102190 96
2008-02-21 09:26:03 51°9.31 2°36.582 10.6 39 7.8 102190 96
2008-02-21 09:26:08 51°9.31 2°36.583 9.4 41 7.8 102220 96
2008-02-21 09:26:13 51°9.31 2°36.585 9.5 35 7.8 102220 96
2008-02-21 09:26:18 51°9.31 2°36.586 9.3 32 7.9 102220 96
2008-02-21 09:26:23 51°9.309 2°36.587 8.7 36 7.9 102220 96
2008-02-21 09:26:28 51°9.309 2°36.589 9.1 35 7.9 102220 96
2008-02-21 09:26:33 51°9.309 2°36.59 9.3 35 7.9 102220 96
2008-02-21 09:26:38 51°9.309 2°36.592 9.5 35 7.9 102210 96
2008-02-21 09:26:43 51°9.308 2°36.593 9.7 33 7.9 102210 96
2008-02-21 09:26:48 51°9.308 2°36.594 10.1 33 7.9 102210 96
2008-02-21 09:26:53 51°9.307 2°36.596 8.9 34 7.9 102210 96
2008-02-21 09:26:58 51°9.307 2°36.597 8.6 36 7.9 102200 96
2008-02-21 09:27:03 51°9.306 2°36.599 9.5 34 7.9 102200 96
2008-02-21 09:27:08 51°9.306 2°36.6 9.8 35 7.9 102210 96
2008-02-21 09:27:13 51°9.306 2°36.601 8.5 31 7.9 102210 96
2008-02-21 09:27:18 51°9.305 2°36.603 8.3 36 7.9 102180 96
2008-02-21 09:27:23 51°9.305 2°36.604 9.4 37 7.9 102180 96
2008-02-21 09:27:28 51°9.305 2°36.606 9.7 32 7.9 102200 96
2008-02-21 09:27:33 51°9.304 2°36.607 8.8 37 7.9 102200 96
2008-02-21 09:27:38 51°9.304 2°36.609 9.7 34 7.9 102180 96
2008-02-21 09:27:43 51°9.303 2°36.61 9.3 33 7.9 102180 96
2008-02-21 09:27:48 51°9.303 2°36.612 10.2 33 7.9 102190 96
2008-02-21 09:27:53 51°9.303 2°36.613 9.6 35 7.9 102190 96
2008-02-21 09:27:58 51°9.302 2°36.615 9.9 36 7.9 102180 96
2008-02-21 09:28:03 51°9.302 2°36.616 9.7 35 7.9 102180 96
2008-02-21 09:28:08 51°9.302 2°36.618 9.7 34 7.9 102180 96
2008-02-21 09:28:13 51°9.301 2°36.62 9.6 32 7.9 102180 96
2008-02-21 09:28:18 51°9.3 2°36.621 8.4 37 7.9 102180 96
2008-02-21 09:28:23 51°9.3 2°36.623 8.9 37 7.9 102180 96
2008-02-21 09:28:28 51°9.3 2°36.624 9.9 36 7.9 102210 96
2008-02-21 09:28:33 51°9.299 2°36.626 8.6 36 7.9 102210 96
2008-02-21 09:28:38 51°9.299 2°36.627 8.8 35 7.9 102210 96
2008-02-21 09:28:43 51°9.298 2°36.629 8.9 36 7.9 102210 96
2008-02-21 09:28:48 51°9.298 2°36.63 8.5 32 7.9 102210 96